Airfield :
LOGIN :

Register | Disclaimer

   EN    FR    IT 

 










Legend :    VFR   Marginal VFR   IFR   Intensive IFR   Very Intensive IFR
Visi :
Ceiling :
>= 8 km
>= 3000ft
5 to 8 km
1000 to 3000 ft
1500m to 5 km
500 to 1000 ft
800 to 1500m
200 to 500 ft
< 800m
< 200 ft
Symbols :   Thunderstorms  Fog  Heavy snow  Heavy precipitations  Wind > 20 kt
SIGMETs :     Misc.  Thunderstorms  Icing  Turbulence  Mountain Waves  Volcanic Ashes






- Airport Elevation : 37 ft
- IATA code : HLY


EGOV - RAF Valley

CURRENT METAR :
  • 271120Z 30019KT 9999 FEW023 06/01 Q1004 NOSIG RMK BLU BLU

EXPIRED METARs :
  • 271050Z 31017KT 9999 FEW023 06/00 Q1004 NOSIG RMK BLU BLU
  • 271023Z 31016KT 9999 FEW025 06/01 Q1003 NOSIG RMK BLU BLU
  • 270950Z 31015KT 9999 FEW022 05/00 Q1002 NOSIG RMK BLU BLU
  • 270923Z 31013KT 9999 FEW023 05/01 Q1002 NOSIG RMK BLU BLU
  • 270850Z 32013KT 9999 FEW024 05/00 Q1001 NOSIG RMK BLU BLU

TAF TAF EGOV
Valid from the 27 at 12:00 until the 27 at 21:00 UTC


271046Z 2712/2721 30014KT 9999 FEW023
TEMPO 2712/2715 30015G25KT
BECMG 2714/2717 27010KT



MET'MAP, your aeronautical weather chart ! - Copyright ORBIFLY December 2007 - Disclaimer

ORBIFLY MET'MAP TEAM :

Programming & Development : Alexandra Zaïnal
Concept & original design : Baudouin d'Aumeries
Assistance for programming : Marc-Olivier Méhu
Technical & hardware support : Manuel Goepfert

Contact : metmap@orbifly.com




SOURCES & CREDITS :

   NOAA